sensor_id;sensor_type;location;lat;lon;timestamp;P1;durP1;ratioP1;P2;durP2;ratioP2
61112;SDS011;47184;57.998;56.184;2023-07-29T00:00:58;10.68;;;3.53;;
61112;SDS011;47184;57.998;56.184;2023-07-29T00:03:26;16.92;;;4.47;;
61112;SDS011;47184;57.998;56.184;2023-07-29T00:05:52;26.75;;;3.70;;
61112;SDS011;47184;57.998;56.184;2023-07-29T00:08:18;23.35;;;4.00;;
61112;SDS011;47184;57.998;56.184;2023-07-29T00:10:44;18.13;;;3.45;;
61112;SDS011;47184;57.998;56.184;2023-07-29T00:13:10;13.05;;;3.47;;
61112;SDS011;47184;57.998;56.184;2023-07-29T00:15:36;16.65;;;3.67;;
61112;SDS011;47184;57.998;56.184;2023-07-29T00:18:02;25.25;;;3.55;;
61112;SDS011;47184;57.998;56.184;2023-07-29T00:20:28;12.50;;;4.00;;
61112;SDS011;47184;57.998;56.184;2023-07-29T00:22:54;22.38;;;4.40;;
61112;SDS011;47184;57.998;56.184;2023-07-29T00:25:20;20.00;;;4.43;;
61112;SDS011;47184;57.998;56.184;2023-07-29T00:27:47;16.88;;;4.13;;
61112;SDS011;47184;57.998;56.184;2023-07-29T00:30:13;18.17;;;3.70;;
61112;SDS011;47184;57.998;56.184;2023-07-29T00:32:40;17.88;;;3.95;;
61112;SDS011;47184;57.998;56.184;2023-07-29T00:35:06;13.32;;;3.95;;
61112;SDS011;47184;57.998;56.184;2023-07-29T00:37:33;21.85;;;3.70;;
61112;SDS011;47184;57.998;56.184;2023-07-29T00:39:59;38.72;;;3.70;;
61112;SDS011;47184;57.998;56.184;2023-07-29T00:42:25;17.65;;;3.83;;
61112;SDS011;47184;57.998;56.184;2023-07-29T00:44:51;15.00;;;3.83;;
61112;SDS011;47184;57.998;56.184;2023-07-29T00:47:18;10.98;;;2.85;;
61112;SDS011;47184;57.998;56.184;2023-07-29T00:49:48;14.77;;;3.45;;
61112;SDS011;47184;57.998;56.184;2023-07-29T00:52:14;9.20;;;3.08;;
61112;SDS011;47184;57.998;56.184;2023-07-29T00:54:42;20.83;;;3.38;;
61112;SDS011;47184;57.998;56.184;2023-07-29T00:57:08;18.17;;;4.03;;
61112;SDS011;47184;57.998;56.184;2023-07-29T00:59:37;6.28;;;3.08;;
61112;SDS011;47184;57.998;56.184;2023-07-29T01:02:03;15.27;;;3.42;;
61112;SDS011;47184;57.998;56.184;2023-07-29T01:04:30;13.52;;;3.30;;
61112;SDS011;47184;57.998;56.184;2023-07-29T01:09:43;12.68;;;3.67;;
61112;SDS011;47184;57.998;56.184;2023-07-29T01:15:26;6.18;;;3.08;;
61112;SDS011;47184;57.998;56.184;2023-07-29T01:18:28;7.93;;;3.28;;
61112;SDS011;47184;57.998;56.184;2023-07-29T01:21:03;13.07;;;3.78;;
61112;SDS011;47184;57.998;56.184;2023-07-29T01:25:58;17.63;;;3.40;;
61112;SDS011;47184;57.998;56.184;2023-07-29T01:28:24;11.65;;;3.65;;
61112;SDS011;47184;57.998;56.184;2023-07-29T01:30:52;7.32;;;3.65;;
61112;SDS011;47184;57.998;56.184;2023-07-29T01:33:30;12.02;;;3.38;;
61112;SDS011;47184;57.998;56.184;2023-07-29T01:36:02;11.38;;;3.55;;
61112;SDS011;47184;57.998;56.184;2023-07-29T01:38:35;9.88;;;2.90;;
61112;SDS011;47184;57.998;56.184;2023-07-29T01:41:02;7.95;;;3.15;;
61112;SDS011;47184;57.998;56.184;2023-07-29T01:43:31;13.10;;;2.70;;
61112;SDS011;47184;57.998;56.184;2023-07-29T01:45:57;9.70;;;2.53;;
61112;SDS011;47184;57.998;56.184;2023-07-29T01:48:24;7.15;;;2.30;;
61112;SDS011;47184;57.998;56.184;2023-07-29T01:50:50;10.98;;;2.90;;
61112;SDS011;47184;57.998;56.184;2023-07-29T01:53:16;9.25;;;2.38;;
61112;SDS011;47184;57.998;56.184;2023-07-29T01:55:42;16.95;;;2.60;;
61112;SDS011;47184;57.998;56.184;2023-07-29T01:58:10;11.45;;;2.50;;
61112;SDS011;47184;57.998;56.184;2023-07-29T02:00:38;6.78;;;2.85;;
61112;SDS011;47184;57.998;56.184;2023-07-29T02:03:04;22.85;;;3.88;;
61112;SDS011;47184;57.998;56.184;2023-07-29T02:05:30;18.17;;;5.82;;
61112;SDS011;47184;57.998;56.184;2023-07-29T02:07:56;32.70;;;7.55;;
61112;SDS011;47184;57.998;56.184;2023-07-29T02:10:24;38.53;;;8.85;;
61112;SDS011;47184;57.998;56.184;2023-07-29T02:12:49;82.90;;;13.35;;
61112;SDS011;47184;57.998;56.184;2023-07-29T02:15:15;131.75;;;19.58;;
61112;SDS011;47184;57.998;56.184;2023-07-29T02:17:42;120.53;;;18.77;;
61112;SDS011;47184;57.998;56.184;2023-07-29T02:20:08;85.32;;;16.27;;
61112;SDS011;47184;57.998;56.184;2023-07-29T02:22:37;60.38;;;13.20;;
61112;SDS011;47184;57.998;56.184;2023-07-29T02:25:03;60.35;;;11.93;;
61112;SDS011;47184;57.998;56.184;2023-07-29T02:27:29;57.58;;;13.15;;
61112;SDS011;47184;57.998;56.184;2023-07-29T02:29:55;38.90;;;11.27;;
61112;SDS011;47184;57.998;56.184;2023-07-29T02:32:21;59.38;;;13.00;;
61112;SDS011;47184;57.998;56.184;2023-07-29T02:34:48;49.50;;;10.68;;
61112;SDS011;47184;57.998;56.184;2023-07-29T02:37:15;53.72;;;11.25;;
61112;SDS011;47184;57.998;56.184;2023-07-29T02:39:42;41.13;;;9.68;;
61112;SDS011;47184;57.998;56.184;2023-07-29T02:42:08;46.05;;;10.95;;
61112;SDS011;47184;57.998;56.184;2023-07-29T02:44:34;44.33;;;10.35;;
61112;SDS011;47184;57.998;56.184;2023-07-29T02:47:00;37.08;;;10.45;;
61112;SDS011;47184;57.998;56.184;2023-07-29T02:49:26;33.22;;;8.25;;
61112;SDS011;47184;57.998;56.184;2023-07-29T02:51:52;35.15;;;6.47;;
61112;SDS011;47184;57.998;56.184;2023-07-29T02:54:17;24.20;;;4.80;;
61112;SDS011;47184;57.998;56.184;2023-07-29T02:56:44;17.75;;;3.10;;
61112;SDS011;47184;57.998;56.184;2023-07-29T02:59:09;12.15;;;2.47;;
61112;SDS011;47184;57.998;56.184;2023-07-29T03:01:36;7.95;;;1.60;;
